.
WxDataArchive / Data Records for 2015-04-23
2015-04-22 April 2015 2015-04-24

Data Records for Thursday, 23 April 2015

Time	Temp	Chill	HIndex	Humid	Dewpt	 Wind 	HiWind	WindDir	Rain 	Barom
-----	----	-----	------	-----	-----	------	------	-------	-----	-----
00:00	34.6	34.6	34.6	72	26.5	0	0	---	0.00	29.878 
00:05	34.6	34.6	34.6	72	26.5	0	0	---	0.00	29.878 
00:10	34.3	34.3	34.3	72	26.2	0	0	---	0.00	29.878 
00:15	34.1	34.1	34.1	72	26.0	0	0	---	0.00	29.876 
00:20	34.0	34.0	34.0	73	26.3	0	0	---	0.00	29.876 
00:25	33.8	33.8	33.8	73	26.1	0	0	---	0.00	29.876 
00:30	33.7	33.7	33.7	73	26.0	0	0	---	0.00	29.875 
00:35	33.5	33.5	33.5	73	25.8	0	0	---	0.00	29.875 
00:40	33.4	33.4	33.4	74	26.0	0	0	---	0.00	29.875 
00:45	33.2	33.2	33.2	74	25.8	0	0	---	0.00	29.876 
00:50	33.1	33.1	33.1	74	25.7	0	0	---	0.00	29.876 
00:55	32.9	32.9	32.9	75	25.9	0	0	---	0.00	29.876 
01:00	32.8	32.8	32.8	75	25.8	0	0	---	0.00	29.875 
01:05	32.7	32.7	32.7	76	26.0	0	0	---	0.00	29.875 
01:10	32.7	32.7	32.7	76	26.0	0	0	---	0.00	29.875 
01:15	32.7	32.7	32.7	77	26.3	0	0	---	0.00	29.874 
01:20	32.8	32.8	32.8	76	26.1	0	0	---	0.00	29.874 
01:25	32.9	32.9	32.9	76	26.2	0	0	---	0.00	29.874 
01:30	33.1	33.1	33.1	77	26.7	0	0	---	0.00	29.874 
01:35	33.4	33.4	33.4	77	27.0	0	0	---	0.00	29.874 
01:40	33.8	33.8	33.8	76	27.1	0	0	---	0.00	29.874 
01:45	34.1	34.1	34.1	75	27.0	0	0	---	0.00	29.872 
01:50	34.1	34.1	34.1	75	27.0	0	0	---	0.00	29.872 
01:55	34.3	34.3	34.3	75	27.2	0	0	---	0.00	29.872 
02:00	34.6	34.6	34.6	74	27.2	0	0	---	0.00	29.872 
02:05	34.9	34.9	34.9	73	27.1	0	1	270	0.00	29.872 
02:10	35.2	35.2	35.2	72	27.1	0	0	---	0.00	29.872 
02:15	35.3	35.3	35.3	71	26.9	0	1	270	0.00	29.867 
02:20	35.3	35.3	35.3	71	26.9	0	1	270	0.00	29.867 
02:25	35.5	35.5	35.5	70	26.7	0	1	270	0.00	29.867 
02:30	35.5	35.5	35.5	70	26.7	0	0	---	0.00	29.861 
02:35	35.5	35.5	35.5	70	26.7	0	1	270	0.00	29.861 
02:40	35.5	35.5	35.5	70	26.7	0	0	---	0.00	29.861 
02:45	35.3	35.3	35.3	70	26.5	0	0	---	0.00	29.866 
02:50	35.5	35.5	35.5	70	26.7	0	0	---	0.00	29.866 
02:55	35.5	35.5	35.5	71	27.0	0	0	---	0.00	29.866 
03:00	35.5	35.5	35.5	71	27.0	0	0	---	0.00	29.865 
03:05	35.6	35.6	35.6	71	27.1	0	0	---	0.00	29.865 
03:10	35.8	35.8	35.8	72	27.7	0	0	---	0.00	29.865 
03:15	35.8	35.8	35.8	72	27.7	0	0	---	0.00	29.869 
03:20	35.9	35.9	35.9	72	27.8	0	0	---	0.00	29.869 
03:25	35.9	35.9	35.9	71	27.4	0	0	---	0.00	29.869 
03:30	36.0	36.0	36.0	71	27.5	0	0	---	0.00	29.872 
03:35	36.0	36.0	36.0	71	27.5	0	0	---	0.00	29.872 
03:40	36.0	36.0	36.0	71	27.5	0	1	270	0.00	29.872 
03:45	36.0	36.0	36.0	71	27.5	0	1	270	0.00	29.873 
03:50	36.0	36.0	36.0	71	27.5	0	0	---	0.00	29.873 
03:55	36.0	36.0	36.0	71	27.5	0	0	---	0.00	29.873 
04:00	36.0	36.0	36.0	71	27.5	0	1	270	0.00	29.875 
04:05	35.9	35.9	35.9	70	27.1	0	0	---	0.00	29.875 
04:10	35.8	35.8	35.8	71	27.3	0	1	270	0.00	29.875 
04:15	35.6	35.6	35.6	71	27.1	0	0	---	0.00	29.872 
04:20	35.5	35.5	35.5	71	27.0	0	0	---	0.00	29.872 
04:25	35.3	35.3	35.3	71	26.9	0	1	270	0.00	29.872 
04:30	35.2	35.2	35.2	72	27.1	0	2	270	0.00	29.874 
04:35	35.0	35.0	35.0	72	26.9	0	1	270	0.00	29.874 
04:40	34.9	34.9	34.9	72	26.8	0	1	270	0.00	29.874 
04:45	34.9	34.9	34.9	72	26.8	0	1	270	0.00	29.879 
04:50	34.7	34.7	34.7	72	26.6	0	1	270	0.00	29.879 
04:55	34.7	34.7	34.7	72	26.6	0	1	270	0.00	29.879 
05:00	34.7	34.7	34.7	71	26.3	0	1	270	0.00	29.881 
05:05	34.7	34.7	34.7	71	26.3	0	0	---	0.00	29.881 
05:10	34.7	34.7	34.7	71	26.3	0	0	---	0.00	29.881 
05:15	34.6	34.6	34.6	71	26.2	0	1	270	0.00	29.885 
05:20	34.6	34.6	34.6	71	26.2	0	1	270	0.00	29.885 
05:25	34.6	34.6	34.6	71	26.2	0	1	270	0.00	29.885 
05:30	34.4	34.4	34.4	71	26.0	0	0	---	0.00	29.886 
05:35	34.4	34.4	34.4	71	26.0	0	1	270	0.00	29.886 
05:40	34.3	34.3	34.3	71	25.9	0	1	270	0.00	29.886 
05:45	34.3	34.3	34.3	71	25.9	0	1	270	0.00	29.888 
05:50	34.3	34.3	34.3	71	25.9	0	1	270	0.00	29.888 
05:55	34.3	34.3	34.3	71	25.9	0	1	270	0.00	29.888 
06:00	34.1	34.1	34.1	71	25.7	0	1	270	0.00	29.896 
06:05	34.1	34.1	34.1	71	25.7	0	1	270	0.00	29.896 
06:10	34.1	34.1	34.1	71	25.7	0	2	270	0.00	29.896 
06:15	34.0	34.0	34.0	71	25.6	0	2	270	0.00	29.903 
06:20	34.0	34.0	34.0	72	25.9	0	1	270	0.00	29.903 
06:25	33.8	33.8	33.8	72	25.7	0	1	270	0.00	29.903 
06:30	33.7	33.7	33.7	72	25.7	0	0	---	0.00	29.913 
06:35	33.4	33.4	33.4	73	25.7	0	1	270	0.00	29.913 
06:40	33.2	33.2	33.2	73	25.5	0	1	270	0.00	29.913 
06:45	33.2	33.2	33.2	73	25.5	0	1	270	0.00	29.921 
06:50	33.1	33.1	33.1	73	25.4	0	1	270	0.00	29.921 
06:55	33.1	33.1	33.1	73	25.4	0	1	270	0.00	29.921 
07:00	33.1	33.1	33.1	74	25.7	0	1	270	0.00	29.934 
07:05	33.1	33.1	33.1	74	25.7	0	1	270	0.00	29.934 
07:10	33.1	33.1	33.1	74	25.7	0	2	270	0.00	29.934 
07:15	33.1	33.1	33.1	74	25.7	0	1	270	0.00	29.936 
07:20	33.2	33.2	33.2	74	25.8	0	1	270	0.00	29.936 
07:25	33.2	33.2	33.2	74	25.8	0	1	270	0.00	29.936 
07:30	33.4	33.4	33.4	74	26.0	0	1	270	0.00	29.948 
07:35	33.5	33.5	33.5	74	26.1	0	1	270	0.00	29.948 
07:40	33.8	33.8	33.8	74	26.4	0	2	270	0.00	29.948 
07:45	34.1	34.1	34.1	74	26.7	0	1	270	0.00	29.952 
07:50	34.4	34.4	34.4	73	26.7	0	2	270	0.00	29.952 
07:55	34.9	34.9	34.9	73	27.1	0	2	270	0.00	29.952 
08:00	35.5	35.5	35.5	73	27.7	0	1	270	0.00	29.951 
08:05	35.9	35.9	35.9	72	27.8	0	1	270	0.00	29.951 
08:10	36.5	36.5	36.5	70	27.7	1	3	270	0.00	29.951 
08:15	36.9	36.9	36.9	69	27.7	0	2	270	0.00	29.959 
08:20	37.3	37.3	37.3	67	27.4	1	2	270	0.00	29.959 
08:25	37.8	37.8	37.8	64	26.7	1	4	292	0.00	29.959 
08:30	38.0	38.0	38.0	62	26.2	1	4	338	0.00	29.962 
08:35	38.5	38.5	38.5	61	26.2	2	4	338	0.00	29.962 
08:40	38.8	38.8	38.8	59	25.7	2	4	338	0.00	29.962 
08:45	38.9	38.9	38.9	58	25.4	2	5	315	0.00	29.962 
08:50	39.1	39.1	39.1	58	25.6	2	4	338	0.00	29.962 
08:55	39.2	39.2	39.2	58	25.7	2	9	292	0.00	29.962 
09:00	39.3	39.3	39.3	57	25.4	2	5	292	0.00	29.961 
09:05	39.5	39.5	39.5	57	25.5	3	7	270	0.00	29.961 
09:10	39.5	39.5	39.5	55	24.7	3	6	315	0.00	29.961 
09:15	39.5	36.7	39.5	55	24.7	4	6	338	0.00	29.963 
09:20	39.8	39.8	39.8	55	25.0	3	7	0	0.00	29.963 
09:25	39.9	39.9	39.9	55	25.1	3	7	270	0.00	29.963 
09:30	40.3	40.3	40.3	55	25.4	2	5	292	0.00	29.965 
09:35	40.6	40.6	40.6	54	25.3	3	7	315	0.00	29.965 
09:40	40.6	40.6	40.6	54	25.3	3	7	270	0.00	29.965 
09:45	41.1	41.1	41.1	55	26.2	2	4	292	0.00	29.963 
09:50	41.3	41.3	41.3	54	25.9	3	7	338	0.00	29.963 
09:55	41.6	41.6	41.6	52	25.3	3	9	338	0.00	29.963 
10:00	41.9	41.9	41.9	52	25.6	3	7	0	0.00	29.963 
10:05	42.1	42.1	42.1	51	25.3	2	5	270	0.00	29.963 
10:10	42.2	42.2	42.2	50	24.9	3	6	292	0.00	29.963 
10:15	42.2	39.9	42.2	49	24.4	4	11	292	0.00	29.967 
10:20	42.2	39.9	42.2	49	24.4	4	7	292	0.00	29.967 
10:25	42.3	42.3	42.3	48	24.0	2	6	292	0.00	29.967 
10:30	42.8	42.8	42.8	48	24.5	3	10	315	0.00	29.974 
10:35	43.2	43.2	43.2	47	24.3	3	7	315	0.00	29.974 
10:40	43.5	43.5	43.5	48	25.1	3	6	292	0.00	29.974 
10:45	43.9	43.9	43.9	45	23.9	3	5	270	0.00	29.974 
10:50	44.2	42.2	44.2	45	24.2	4	8	292	0.00	29.974 
10:55	43.9	43.9	43.9	43	22.9	3	6	292	0.00	29.974 
11:00	43.3	43.3	43.3	46	23.9	3	7	270	0.00	29.978 
11:05	43.3	43.3	43.3	47	24.4	3	8	270	0.00	29.978 
11:10	43.5	43.5	43.5	47	24.6	3	6	270	0.00	29.978 
11:15	43.8	43.8	43.8	46	24.4	3	6	338	0.00	29.980 
11:20	43.9	43.9	43.9	46	24.5	3	11	248	0.00	29.980 
11:25	44.5	44.5	44.5	45	24.5	3	7	270	0.00	29.980 
11:30	44.2	42.2	44.2	43	23.1	4	9	270	0.00	29.983 
11:35	44.1	42.1	44.1	44	23.6	4	10	292	0.00	29.983 
11:40	44.2	42.2	44.2	45	24.2	4	11	315	0.00	29.983 
11:45	44.8	44.8	44.8	44	24.2	3	6	292	0.00	29.983 
11:50	44.5	44.5	44.5	44	24.0	3	7	292	0.00	29.983 
11:55	43.9	43.9	43.9	46	24.5	2	7	270	0.00	29.983 
12:00	44.2	44.2	44.2	45	24.2	3	10	292	0.00	29.984 
12:05	44.3	44.3	44.3	44	23.8	3	9	292	0.00	29.984 
12:10	44.8	44.8	44.8	45	24.8	3	7	270	0.00	29.984 
12:15	44.8	44.8	44.8	44	24.2	3	6	315	0.00	29.983 
12:20	44.5	44.5	44.5	44	24.0	3	7	270	0.00	29.983 
12:25	44.6	44.6	44.6	46	25.1	3	10	270	0.00	29.983 
12:30	45.2	45.2	45.2	44	24.6	3	9	292	0.00	29.982 
12:35	45.8	45.8	45.8	44	25.1	3	7	338	0.00	29.982 
12:40	45.7	45.7	45.7	41	23.4	3	9	270	0.00	29.982 
12:45	45.1	43.2	45.1	42	23.4	4	9	270	0.00	29.982 
12:50	45.1	43.2	45.1	42	23.4	4	10	270	0.00	29.982 
12:55	45.5	45.5	45.5	43	24.3	3	10	270	0.00	29.982 
13:00	46.0	46.0	46.0	41	23.6	3	6	270	0.00	29.985 
13:05	45.5	45.5	45.5	40	22.6	3	7	270	0.00	29.985 
13:10	45.2	45.2	45.2	41	22.9	3	7	270	0.00	29.985 
13:15	45.1	45.1	45.1	43	24.0	2	6	270	0.00	29.987 
13:20	45.5	43.7	45.5	41	23.2	4	7	270	0.00	29.987 
13:25	46.0	46.0	46.0	39	22.4	3	6	270	0.00	29.987 
13:30	45.8	45.8	45.8	40	22.9	2	6	292	0.00	29.982 
13:35	45.8	44.0	45.8	38	21.7	4	7	292	0.00	29.982 
13:40	46.4	44.7	46.4	39	22.8	4	6	270	0.00	29.982 
13:45	46.4	46.4	46.4	37	21.6	3	10	270	0.00	29.985 
13:50	46.1	44.4	46.1	39	22.5	4	10	292	0.00	29.985 
13:55	46.4	46.4	46.4	37	21.6	3	10	270	0.00	29.985 
14:00	46.4	44.7	46.4	38	22.2	4	7	270	0.00	29.990 
14:05	46.1	44.4	46.1	37	21.3	4	12	270	0.00	29.990 
14:10	46.5	44.8	46.5	40	23.5	4	6	270	0.00	29.990 
14:15	47.4	47.4	47.4	38	23.1	3	8	292	0.00	29.983 
14:20	47.3	45.8	47.3	37	22.4	4	9	270	0.00	29.983 
14:25	46.7	45.1	46.7	39	23.1	4	9	270	0.00	29.983 
14:30	46.8	45.2	46.8	39	23.2	4	10	292	0.00	29.989 
14:35	46.8	46.8	46.8	39	23.2	2	7	292	0.00	29.989 
14:40	47.0	47.0	47.0	40	23.9	3	7	270	0.00	29.989 
14:45	47.7	47.7	47.7	37	22.7	3	11	292	0.00	29.983 
14:50	48.0	46.6	48.0	37	23.0	4	9	270	0.00	29.983 
14:55	48.2	48.2	48.2	39	24.4	3	7	270	0.00	29.983 
15:00	47.9	47.9	47.9	38	23.5	3	9	315	0.00	29.984 
15:05	47.3	45.8	47.3	36	21.7	4	9	292	0.00	29.984 
15:10	47.3	47.3	47.3	39	23.6	3	7	292	0.00	29.984 
15:15	47.6	47.6	47.6	38	23.3	2	6	292	0.00	29.987 
15:20	47.6	46.1	47.6	39	23.9	4	10	292	0.00	29.987 
15:25	47.3	45.8	47.3	36	21.7	4	11	292	0.00	29.987 
15:30	47.0	47.0	47.0	37	22.1	3	11	270	0.00	29.987 
15:35	46.5	44.1	46.5	36	21.0	5	12	292	0.00	29.987 
15:40	46.5	46.5	46.5	38	22.3	3	6	292	0.00	29.987 
15:45	46.5	44.1	46.5	36	21.0	5	12	338	0.00	29.989 
15:50	46.2	44.5	46.2	38	22.0	4	9	292	0.00	29.989 
15:55	46.4	46.4	46.4	37	21.6	3	6	270	0.00	29.989 
16:00	46.4	44.7	46.4	37	21.6	4	9	292	0.00	29.986 
16:05	47.3	45.0	47.3	37	22.4	5	12	270	0.00	29.986 
16:10	47.9	46.4	47.9	35	21.6	4	8	270	0.00	29.986 
16:15	48.0	46.6	48.0	36	22.3	4	8	270	0.00	29.991 
16:20	48.2	46.8	48.2	36	22.5	4	12	270	0.00	29.991 
16:25	48.5	47.1	48.5	35	22.1	4	8	270	0.00	29.991 
16:30	48.2	46.8	48.2	34	21.2	4	10	292	0.00	29.991 
16:35	47.9	45.8	47.9	33	20.2	5	12	270	0.00	29.991 
16:40	47.7	46.2	47.7	34	20.7	4	10	292	0.00	29.991 
16:45	47.9	47.9	47.9	34	20.9	3	7	315	0.00	29.993 
16:50	48.5	48.5	48.5	34	21.4	3	9	270	0.00	29.993 
16:55	48.2	46.1	48.2	32	19.7	5	11	292	0.00	29.993 
17:00	48.2	48.2	48.2	32	19.7	3	7	292	0.00	29.997 
17:05	48.6	47.3	48.6	31	19.3	4	9	292	0.00	29.997 
17:10	48.5	48.5	48.5	32	20.0	3	11	315	0.00	29.997 
17:15	48.5	48.5	48.5	32	20.0	3	7	338	0.00	30.005 
17:20	48.9	48.9	48.9	31	19.6	3	12	270	0.00	30.005 
17:25	48.9	47.6	48.9	30	18.8	4	10	315	0.00	30.005 
17:30	48.8	47.5	48.8	30	18.8	4	9	270	0.00	30.008 
17:35	48.5	46.5	48.5	30	18.5	5	14	315	0.00	30.008 
17:40	48.3	48.3	48.3	30	18.3	3	7	292	0.00	30.008 
17:45	48.6	47.3	48.6	28	17.0	4	10	270	0.00	30.010 
17:50	48.5	47.1	48.5	28	16.9	4	7	270	0.00	30.010 
17:55	48.5	48.5	48.5	30	18.5	3	6	292	0.00	30.010 
18:00	48.3	48.3	48.3	28	16.7	3	7	315	0.00	30.017 
18:05	47.9	47.9	47.9	29	17.2	3	9	292	0.00	30.017 
18:10	47.9	47.9	47.9	31	18.7	3	7	292	0.00	30.017 
18:15	47.7	47.7	47.7	30	17.8	3	8	292	0.00	30.025 
18:20	47.7	47.7	47.7	30	17.8	3	5	292	0.00	30.025 
18:25	47.4	47.4	47.4	27	15.1	3	7	292	0.00	30.025 
18:30	47.1	47.1	47.1	28	15.7	3	6	292	0.00	30.026 
18:35	47.0	47.0	47.0	28	15.6	3	9	292	0.00	30.026 
18:40	46.8	46.8	46.8	29	16.2	3	7	338	0.00	30.026 
18:45	46.8	46.8	46.8	28	15.4	3	9	315	0.00	30.029 
18:50	46.8	46.8	46.8	29	16.2	2	6	338	0.00	30.029 
18:55	46.7	46.7	46.7	30	16.9	3	5	270	0.00	30.029 
19:00	46.7	46.7	46.7	29	16.2	3	7	270	0.00	30.028 
19:05	46.5	46.5	46.5	29	16.0	3	7	292	0.00	30.028 
19:10	46.4	46.4	46.4	29	15.9	3	7	292	0.00	30.028 
19:15	46.4	46.4	46.4	29	15.9	2	7	292	0.00	30.032 
19:20	46.2	46.2	46.2	31	17.3	2	6	292	0.00	30.032 
19:25	46.2	46.2	46.2	30	16.5	1	5	292	0.00	30.032 
19:30	46.1	46.1	46.1	30	16.4	2	6	292	0.00	30.032 
19:35	46.1	46.1	46.1	30	16.4	2	6	292	0.00	30.032 
19:40	46.0	46.0	46.0	30	16.3	1	4	315	0.00	30.032 
19:45	45.8	45.8	45.8	30	16.1	2	8	315	0.00	30.035 
19:50	45.7	45.7	45.7	30	16.1	1	3	292	0.00	30.035 
19:55	45.5	45.5	45.5	31	16.6	1	3	292	0.00	30.035 
20:00	45.1	45.1	45.1	31	16.3	1	3	292	0.00	30.034 
20:05	44.9	44.9	44.9	32	16.8	1	3	292	0.00	30.034 
20:10	44.6	44.6	44.6	33	17.3	1	3	292	0.00	30.034 
20:15	44.3	44.3	44.3	32	16.3	1	3	292	0.00	30.029 
20:20	44.2	44.2	44.2	32	16.2	1	3	292	0.00	30.029 
20:25	44.1	44.1	44.1	32	16.1	1	3	292	0.00	30.029 
20:30	43.8	43.8	43.8	34	17.3	0	3	292	0.00	30.029 
20:35	43.5	43.5	43.5	34	17.0	0	3	292	0.00	30.029 
20:40	43.2	43.2	43.2	34	16.8	0	2	292	0.00	30.029 
20:45	43.1	43.1	43.1	35	17.3	0	1	292	0.00	30.032 
20:50	42.8	42.8	42.8	36	17.7	0	0	---	0.00	30.032 
20:55	42.3	42.3	42.3	36	17.3	0	0	---	0.00	30.032 
21:00	41.9	41.9	41.9	37	17.5	0	0	---	0.00	30.038 
21:05	41.6	41.6	41.6	39	18.5	0	0	---	0.00	30.038 
21:10	41.2	41.2	41.2	39	18.1	0	0	---	0.00	30.038 
21:15	40.8	40.8	40.8	41	18.9	0	0	---	0.00	30.038 
21:20	40.3	40.3	40.3	42	19.1	0	0	---	0.00	30.038 
21:25	39.9	39.9	39.9	43	19.2	0	0	---	0.00	30.038 
21:30	39.5	39.5	39.5	44	19.4	0	0	---	0.00	30.037 
21:35	39.1	39.1	39.1	44	19.0	0	0	---	0.00	30.037 
21:40	38.5	38.5	38.5	45	19.0	0	0	---	0.00	30.037 
21:45	37.9	37.9	37.9	47	19.5	0	0	---	0.00	30.039 
21:50	37.5	37.5	37.5	46	18.6	0	0	---	0.00	30.039 
21:55	37.0	37.0	37.0	47	18.7	0	0	---	0.00	30.039 
22:00	36.8	36.8	36.8	48	19.0	0	0	---	0.00	30.042 
22:05	36.5	36.5	36.5	51	20.1	0	0	---	0.00	30.042 
22:10	36.2	36.2	36.2	53	20.7	0	0	---	0.00	30.042 
22:15	35.8	35.8	35.8	52	19.9	0	0	---	0.00	30.044 
22:20	35.5	35.5	35.5	53	20.1	0	0	---	0.00	30.044 
22:25	35.2	35.2	35.2	54	20.2	0	0	---	0.00	30.044 
22:30	35.0	35.0	35.0	55	20.5	0	0	---	0.00	30.047 
22:35	34.9	34.9	34.9	56	20.8	0	0	---	0.00	30.047 
22:40	34.7	34.7	34.7	57	21.0	0	0	---	0.00	30.047 
22:45	34.4	34.4	34.4	57	20.8	0	0	---	0.00	30.050 
22:50	34.1	34.1	34.1	57	20.5	0	0	---	0.00	30.050 
22:55	34.0	34.0	34.0	58	20.8	0	0	---	0.00	30.050 
23:00	33.7	33.7	33.7	58	20.5	0	0	---	0.00	30.057 
23:05	33.4	33.4	33.4	59	20.6	0	0	---	0.00	30.057 
23:10	33.1	33.1	33.1	59	20.4	0	0	---	0.00	30.057 
23:15	32.9	32.9	32.9	60	20.6	0	0	---	0.00	30.058 
23:20	32.8	32.8	32.8	61	20.9	0	0	---	0.00	30.058 
23:25	32.5	32.5	32.5	61	20.6	0	0	---	0.00	30.058 
23:30	32.4	32.4	32.4	62	20.9	0	0	---	0.00	30.059 
23:35	32.2	32.2	32.2	63	21.0	0	0	---	0.00	30.059 
23:40	32.1	32.1	32.1	63	20.9	0	0	---	0.00	30.059 
23:45	31.9	31.9	31.9	64	21.1	0	0	---	0.00	30.061 
23:50	31.6	31.6	31.6	64	20.8	0	0	---	0.00	30.061 
23:55	31.5	31.5	31.5	65	21.1	0	0	---	0.00	30.061 

CoCoRaHS
IN-AL-39
A2 Web Hosting
Creative Commons License
GoDaddy
search engine by freefind advanced

loaded 2018-11-14 03:37:19 • last modified 2010-11-18 10:43:29
Privacy PolicyDisclaimer
• wx.awcolley.com is powered by PmWiki v.2002016 •
• all content (unless otherwise noted) © 2018 A W Colley